sensor_id;sensor_type;location;lat;lon;timestamp;temperature;humidity
17495;DHT22;8864;51.970;4.614;2022-07-23T00:01:30;26.80;56.60
17495;DHT22;8864;51.970;4.614;2022-07-23T00:03:56;26.80;56.50
17495;DHT22;8864;51.970;4.614;2022-07-23T00:06:24;26.80;56.60
17495;DHT22;8864;51.970;4.614;2022-07-23T00:08:51;26.80;56.60
17495;DHT22;8864;51.970;4.614;2022-07-23T00:11:18;26.80;56.60
17495;DHT22;8864;51.970;4.614;2022-07-23T00:13:45;26.70;56.50
17495;DHT22;8864;51.970;4.614;2022-07-23T00:16:13;26.80;56.60
17495;DHT22;8864;51.970;4.614;2022-07-23T00:18:40;26.70;56.50
17495;DHT22;8864;51.970;4.614;2022-07-23T00:21:07;26.70;56.50
17495;DHT22;8864;51.970;4.614;2022-07-23T00:23:34;26.70;56.50
17495;DHT22;8864;51.970;4.614;2022-07-23T00:26:01;26.70;56.50
17495;DHT22;8864;51.970;4.614;2022-07-23T00:28:27;26.70;56.50
17495;DHT22;8864;51.970;4.614;2022-07-23T00:30:54;26.70;56.50
17495;DHT22;8864;51.970;4.614;2022-07-23T00:33:22;26.70;56.50
17495;DHT22;8864;51.970;4.614;2022-07-23T00:35:49;26.70;56.50
17495;DHT22;8864;51.970;4.614;2022-07-23T00:38:16;26.70;56.50
17495;DHT22;8864;51.970;4.614;2022-07-23T00:40:43;26.70;56.50
17495;DHT22;8864;51.970;4.614;2022-07-23T00:43:09;26.60;56.50
17495;DHT22;8864;51.970;4.614;2022-07-23T00:45:36;26.70;56.50
17495;DHT22;8864;51.970;4.614;2022-07-23T00:48:04;26.70;57.20
17495;DHT22;8864;51.970;4.614;2022-07-23T00:50:33;26.70;57.20
17495;DHT22;8864;51.970;4.614;2022-07-23T00:53:00;26.70;56.50
17495;DHT22;8864;51.970;4.614;2022-07-23T00:55:26;26.70;56.50
17495;DHT22;8864;51.970;4.614;2022-07-23T00:57:53;26.60;56.50
17495;DHT22;8864;51.970;4.614;2022-07-23T01:00:21;26.60;56.50
17495;DHT22;8864;51.970;4.614;2022-07-23T01:02:48;26.60;56.50
17495;DHT22;8864;51.970;4.614;2022-07-23T01:05:16;26.70;56.50
17495;DHT22;8864;51.970;4.614;2022-07-23T01:07:49;26.60;56.50
17495;DHT22;8864;51.970;4.614;2022-07-23T01:10:16;26.60;56.50
17495;DHT22;8864;51.970;4.614;2022-07-23T01:12:58;26.60;56.50
17495;DHT22;8864;51.970;4.614;2022-07-23T01:15:25;26.60;56.50
17495;DHT22;8864;51.970;4.614;2022-07-23T01:17:52;26.60;56.50
17495;DHT22;8864;51.970;4.614;2022-07-23T01:20:19;26.60;56.50
17495;DHT22;8864;51.970;4.614;2022-07-23T01:22:47;26.60;56.50
17495;DHT22;8864;51.970;4.614;2022-07-23T01:25:14;26.60;56.50
17495;DHT22;8864;51.970;4.614;2022-07-23T01:27:41;26.60;56.50
17495;DHT22;8864;51.970;4.614;2022-07-23T01:30:10;26.60;56.50
17495;DHT22;8864;51.970;4.614;2022-07-23T01:32:37;26.60;56.50
17495;DHT22;8864;51.970;4.614;2022-07-23T01:35:05;26.60;56.50
17495;DHT22;8864;51.970;4.614;2022-07-23T01:37:32;26.60;56.50
17495;DHT22;8864;51.970;4.614;2022-07-23T01:40:00;26.60;56.50
17495;DHT22;8864;51.970;4.614;2022-07-23T01:42:27;26.60;56.50
17495;DHT22;8864;51.970;4.614;2022-07-23T01:44:53;26.50;56.50
17495;DHT22;8864;51.970;4.614;2022-07-23T01:47:20;26.60;56.50
17495;DHT22;8864;51.970;4.614;2022-07-23T01:49:47;26.60;56.50
17495;DHT22;8864;51.970;4.614;2022-07-23T01:52:14;26.50;56.50
17495;DHT22;8864;51.970;4.614;2022-07-23T01:54:42;26.50;56.40
17495;DHT22;8864;51.970;4.614;2022-07-23T01:57:10;26.60;56.50
17495;DHT22;8864;51.970;4.614;2022-07-23T01:59:36;26.50;56.40
17495;DHT22;8864;51.970;4.614;2022-07-23T02:02:04;26.50;56.40
17495;DHT22;8864;51.970;4.614;2022-07-23T02:04:31;26.50;56.40
17495;DHT22;8864;51.970;4.614;2022-07-23T02:07:01;26.50;56.50
17495;DHT22;8864;51.970;4.614;2022-07-23T02:09:28;26.50;56.40
17495;DHT22;8864;51.970;4.614;2022-07-23T02:11:55;26.50;56.50
17495;DHT22;8864;51.970;4.614;2022-07-23T02:14:23;26.50;56.40
17495;DHT22;8864;51.970;4.614;2022-07-23T02:16:50;26.50;56.40
17495;DHT22;8864;51.970;4.614;2022-07-23T02:19:16;26.50;56.40
17495;DHT22;8864;51.970;4.614;2022-07-23T02:21:43;26.50;56.40
17495;DHT22;8864;51.970;4.614;2022-07-23T02:24:10;26.50;56.40
17495;DHT22;8864;51.970;4.614;2022-07-23T02:26:37;26.50;56.40
17495;DHT22;8864;51.970;4.614;2022-07-23T02:29:04;26.40;56.40
17495;DHT22;8864;51.970;4.614;2022-07-23T02:31:32;26.50;56.40
17495;DHT22;8864;51.970;4.614;2022-07-23T02:33:59;26.50;56.40
17495;DHT22;8864;51.970;4.614;2022-07-23T02:36:26;26.50;56.40
17495;DHT22;8864;51.970;4.614;2022-07-23T02:38:54;26.50;56.40
17495;DHT22;8864;51.970;4.614;2022-07-23T02:41:20;26.40;56.40
17495;DHT22;8864;51.970;4.614;2022-07-23T02:43:47;26.50;56.40
17495;DHT22;8864;51.970;4.614;2022-07-23T02:46:14;26.40;56.40
17495;DHT22;8864;51.970;4.614;2022-07-23T02:48:42;26.40;56.40
17495;DHT22;8864;51.970;4.614;2022-07-23T02:51:09;26.40;56.30
17495;DHT22;8864;51.970;4.614;2022-07-23T02:53:36;26.40;56.40
17495;DHT22;8864;51.970;4.614;2022-07-23T02:56:03;26.40;56.30
17495;DHT22;8864;51.970;4.614;2022-07-23T02:58:29;26.40;56.30
17495;DHT22;8864;51.970;4.614;2022-07-23T03:00:56;26.40;56.30
17495;DHT22;8864;51.970;4.614;2022-07-23T03:03:23;26.40;56.30
17495;DHT22;8864;51.970;4.614;2022-07-23T03:05:51;26.40;56.30
17495;DHT22;8864;51.970;4.614;2022-07-23T03:08:18;26.40;56.30
17495;DHT22;8864;51.970;4.614;2022-07-23T03:10:45;26.40;56.30
17495;DHT22;8864;51.970;4.614;2022-07-23T03:13:11;26.40;56.30
17495;DHT22;8864;51.970;4.614;2022-07-23T03:15:38;26.40;56.30
17495;DHT22;8864;51.970;4.614;2022-07-23T03:18:05;26.30;56.20
17495;DHT22;8864;51.970;4.614;2022-07-23T03:20:32;26.30;56.20
17495;DHT22;8864;51.970;4.614;2022-07-23T03:23:00;26.40;56.30
17495;DHT22;8864;51.970;4.614;2022-07-23T03:25:27;26.40;56.30
17495;DHT22;8864;51.970;4.614;2022-07-23T03:27:53;26.30;56.20
17495;DHT22;8864;51.970;4.614;2022-07-23T03:30:20;26.30;56.10
17495;DHT22;8864;51.970;4.614;2022-07-23T03:32:47;26.30;56.20
17495;DHT22;8864;51.970;4.614;2022-07-23T03:35:14;26.30;56.20
17495;DHT22;8864;51.970;4.614;2022-07-23T03:37:40;26.30;56.20
17495;DHT22;8864;51.970;4.614;2022-07-23T03:40:10;26.40;56.30
17495;DHT22;8864;51.970;4.614;2022-07-23T03:42:36;26.30;56.10
17495;DHT22;8864;51.970;4.614;2022-07-23T03:45:05;26.30;56.10
17495;DHT22;8864;51.970;4.614;2022-07-23T03:47:32;26.30;56.20
17495;DHT22;8864;51.970;4.614;2022-07-23T03:49:59;26.30;56.10
17495;DHT22;8864;51.970;4.614;2022-07-23T03:52:26;26.30;56.10
17495;DHT22;8864;51.970;4.614;2022-07-23T03:54:52;26.30;56.10
17495;DHT22;8864;51.970;4.614;2022-07-23T03:57:20;26.30;56.10
17495;DHT22;8864;51.970;4.614;2022-07-23T03:59:47;26.30;56.10
17495;DHT22;8864;51.970;4.614;2022-07-23T04:02:14;26.30;56.10
17495;DHT22;8864;51.970;4.614;2022-07-23T04:04:41;26.30;56.10
17495;DHT22;8864;51.970;4.614;2022-07-23T04:07:08;26.30;56.10
17495;DHT22;8864;51.970;4.614;2022-07-23T04:09:34;26.30;56.10
17495;DHT22;8864;51.970;4.614;2022-07-23T04:12:01;26.30;56.80
17495;DHT22;8864;51.970;4.614;2022-07-23T04:14:29;26.30;56.80
17495;DHT22;8864;51.970;4.614;2022-07-23T04:16:56;26.30;56.10
17495;DHT22;8864;51.970;4.614;2022-07-23T04:19:23;26.30;56.10
17495;DHT22;8864;51.970;4.614;2022-07-23T04:21:50;26.20;56.00
17495;DHT22;8864;51.970;4.614;2022-07-23T04:24:17;26.30;56.10
17495;DHT22;8864;51.970;4.614;2022-07-23T04:26:44;26.20;56.10
17495;DHT22;8864;51.970;4.614;2022-07-23T04:29:11;26.20;56.00
17495;DHT22;8864;51.970;4.614;2022-07-23T04:31:39;26.30;56.10
17495;DHT22;8864;51.970;4.614;2022-07-23T04:34:06;26.30;56.10
17495;DHT22;8864;51.970;4.614;2022-07-23T04:36:33;26.20;56.10
17495;DHT22;8864;51.970;4.614;2022-07-23T04:38:59;26.30;56.10
17495;DHT22;8864;51.970;4.614;2022-07-23T04:41:26;26.20;56.10
17495;DHT22;8864;51.970;4.614;2022-07-23T04:43:53;26.20;56.10
17495;DHT22;8864;51.970;4.614;2022-07-23T04:46:20;26.20;56.10
17495;DHT22;8864;51.970;4.614;2022-07-23T04:48:48;26.20;56.10
17495;DHT22;8864;51.970;4.614;2022-07-23T04:51:14;26.20;56.20
17495;DHT22;8864;51.970;4.614;2022-07-23T04:53:41;26.20;56.10
17495;DHT22;8864;51.970;4.614;2022-07-23T04:56:08;26.30;56.20
17495;DHT22;8864;51.970;4.614;2022-07-23T04:58:35;26.20;56.10
17495;DHT22;8864;51.970;4.614;2022-07-23T05:01:02;26.30;56.20
17495;DHT22;8864;51.970;4.614;2022-07-23T05:03:29;26.20;56.20
17495;DHT22;8864;51.970;4.614;2022-07-23T05:05:57;26.20;56.20
17495;DHT22;8864;51.970;4.614;2022-07-23T05:08:24;26.20;56.20
17495;DHT22;8864;51.970;4.614;2022-07-23T05:10:51;26.20;56.20
17495;DHT22;8864;51.970;4.614;2022-07-23T05:13:19;26.30;56.20
17495;DHT22;8864;51.970;4.614;2022-07-23T05:15:46;26.20;56.20
17495;DHT22;8864;51.970;4.614;2022-07-23T05:18:13;26.20;56.20
17495;DHT22;8864;51.970;4.614;2022-07-23T05:20:40;26.20;56.20
17495;DHT22;8864;51.970;4.614;2022-07-23T05:23:08;26.20;56.20
17495;DHT22;8864;51.970;4.614;2022-07-23T05:25:35;26.20;56.20
17495;DHT22;8864;51.970;4.614;2022-07-23T05:28:02;26.20;56.20
17495;DHT22;8864;51.970;4.614;2022-07-23T05:30:29;26.20;56.20
17495;DHT22;8864;51.970;4.614;2022-07-23T05:32:56;26.20;56.20
17495;DHT22;8864;51.970;4.614;2022-07-23T05:35:23;26.20;56.20
17495;DHT22;8864;51.970;4.614;2022-07-23T05:37:52;26.20;56.20
17495;DHT22;8864;51.970;4.614;2022-07-23T05:40:21;26.20;56.20
17495;DHT22;8864;51.970;4.614;2022-07-23T05:42:48;26.20;56.20
17495;DHT22;8864;51.970;4.614;2022-07-23T05:45:14;26.20;56.20
17495;DHT22;8864;51.970;4.614;2022-07-23T05:47:42;26.20;56.20
17495;DHT22;8864;51.970;4.614;2022-07-23T05:50:10;26.20;56.90
17495;DHT22;8864;51.970;4.614;2022-07-23T05:52:37;26.20;56.20
17495;DHT22;8864;51.970;4.614;2022-07-23T05:55:06;26.20;56.20
17495;DHT22;8864;51.970;4.614;2022-07-23T05:57:34;26.20;56.20
17495;DHT22;8864;51.970;4.614;2022-07-23T06:00:02;26.20;56.20
17495;DHT22;8864;51.970;4.614;2022-07-23T06:02:29;26.20;56.20
17495;DHT22;8864;51.970;4.614;2022-07-23T06:04:55;26.20;56.20
17495;DHT22;8864;51.970;4.614;2022-07-23T06:07:22;26.20;56.30
17495;DHT22;8864;51.970;4.614;2022-07-23T06:09:49;26.20;56.30
17495;DHT22;8864;51.970;4.614;2022-07-23T06:12:16;26.20;56.30
17495;DHT22;8864;51.970;4.614;2022-07-23T06:14:44;26.20;56.30
17495;DHT22;8864;51.970;4.614;2022-07-23T06:17:11;26.20;56.30
17495;DHT22;8864;51.970;4.614;2022-07-23T06:19:37;26.20;56.30
17495;DHT22;8864;51.970;4.614;2022-07-23T06:22:04;26.20;56.30
17495;DHT22;8864;51.970;4.614;2022-07-23T06:24:31;26.20;56.30
17495;DHT22;8864;51.970;4.614;2022-07-23T06:26:58;26.20;56.30
17495;DHT22;8864;51.970;4.614;2022-07-23T06:29:25;26.30;56.40
17495;DHT22;8864;51.970;4.614;2022-07-23T06:31:53;26.30;56.40
17495;DHT22;8864;51.970;4.614;2022-07-23T06:34:20;26.30;56.40
17495;DHT22;8864;51.970;4.614;2022-07-23T06:36:46;26.30;56.40
17495;DHT22;8864;51.970;4.614;2022-07-23T06:39:13;26.30;56.30
17495;DHT22;8864;51.970;4.614;2022-07-23T06:41:40;26.30;56.40
17495;DHT22;8864;51.970;4.614;2022-07-23T06:44:07;26.30;56.40
17495;DHT22;8864;51.970;4.614;2022-07-23T06:46:34;26.30;56.40
17495;DHT22;8864;51.970;4.614;2022-07-23T06:49:02;26.30;56.40
17495;DHT22;8864;51.970;4.614;2022-07-23T06:51:30;26.30;56.40
17495;DHT22;8864;51.970;4.614;2022-07-23T06:53:57;26.30;56.40
17495;DHT22;8864;51.970;4.614;2022-07-23T06:56:24;26.30;56.40
17495;DHT22;8864;51.970;4.614;2022-07-23T06:58:51;26.30;56.40
17495;DHT22;8864;51.970;4.614;2022-07-23T07:01:18;26.30;56.40
17495;DHT22;8864;51.970;4.614;2022-07-23T07:03:44;26.30;56.40
17495;DHT22;8864;51.970;4.614;2022-07-23T07:06:13;26.30;56.30
17495;DHT22;8864;51.970;4.614;2022-07-23T07:08:40;26.30;56.30
17495;DHT22;8864;51.970;4.614;2022-07-23T07:11:08;26.30;56.30
17495;DHT22;8864;51.970;4.614;2022-07-23T07:13:35;26.30;56.30
17495;DHT22;8864;51.970;4.614;2022-07-23T07:16:02;26.30;56.30
17495;DHT22;8864;51.970;4.614;2022-07-23T07:18:29;26.30;56.30
17495;DHT22;8864;51.970;4.614;2022-07-23T07:20:57;26.30;56.40
17495;DHT22;8864;51.970;4.614;2022-07-23T07:23:25;26.30;56.40
17495;DHT22;8864;51.970;4.614;2022-07-23T07:25:52;26.30;56.30
17495;DHT22;8864;51.970;4.614;2022-07-23T07:28:18;26.30;56.30
17495;DHT22;8864;51.970;4.614;2022-07-23T07:30:45;26.30;56.30
17495;DHT22;8864;51.970;4.614;2022-07-23T07:33:12;26.40;56.40
17495;DHT22;8864;51.970;4.614;2022-07-23T07:35:39;26.30;56.30
17495;DHT22;8864;51.970;4.614;2022-07-23T07:38:05;26.40;56.40
17495;DHT22;8864;51.970;4.614;2022-07-23T07:40:34;26.30;56.30
17495;DHT22;8864;51.970;4.614;2022-07-23T07:43:01;26.30;56.30
17495;DHT22;8864;51.970;4.614;2022-07-23T07:45:29;26.40;56.30
17495;DHT22;8864;51.970;4.614;2022-07-23T07:47:56;26.40;56.40
17495;DHT22;8864;51.970;4.614;2022-07-23T07:50:23;26.40;56.40
17495;DHT22;8864;51.970;4.614;2022-07-23T07:52:50;26.30;56.30
17495;DHT22;8864;51.970;4.614;2022-07-23T07:55:16;26.40;56.40
17495;DHT22;8864;51.970;4.614;2022-07-23T07:57:45;26.40;57.00
17495;DHT22;8864;51.970;4.614;2022-07-23T08:00:12;26.30;56.30
17495;DHT22;8864;51.970;4.614;2022-07-23T08:02:43;26.40;56.30
17495;DHT22;8864;51.970;4.614;2022-07-23T08:05:10;26.40;56.30
17495;DHT22;8864;51.970;4.614;2022-07-23T08:07:37;26.40;56.40
17495;DHT22;8864;51.970;4.614;2022-07-23T08:10:06;26.40;56.40
17495;DHT22;8864;51.970;4.614;2022-07-23T08:12:41;26.40;56.40
17495;DHT22;8864;51.970;4.614;2022-07-23T08:15:12;26.40;56.40
17495;DHT22;8864;51.970;4.614;2022-07-23T08:17:39;26.40;56.40
17495;DHT22;8864;51.970;4.614;2022-07-23T08:20:07;26.40;56.40
17495;DHT22;8864;51.970;4.614;2022-07-23T08:22:45;26.40;56.40
17495;DHT22;8864;51.970;4.614;2022-07-23T08:25:13;26.40;56.40
17495;DHT22;8864;51.970;4.614;2022-07-23T08:27:40;26.40;56.40
17495;DHT22;8864;51.970;4.614;2022-07-23T08:30:07;26.40;56.40
17495;DHT22;8864;51.970;4.614;2022-07-23T08:32:52;26.40;57.00
17495;DHT22;8864;51.970;4.614;2022-07-23T08:35:25;26.40;56.40
17495;DHT22;8864;51.970;4.614;2022-07-23T08:37:52;26.40;56.40
17495;DHT22;8864;51.970;4.614;2022-07-23T08:40:19;26.40;56.40
17495;DHT22;8864;51.970;4.614;2022-07-23T08:42:48;26.40;56.40
17495;DHT22;8864;51.970;4.614;2022-07-23T08:45:17;26.40;56.40
17495;DHT22;8864;51.970;4.614;2022-07-23T08:47:49;26.50;56.50
17495;DHT22;8864;51.970;4.614;2022-07-23T08:50:16;26.40;56.40
17495;DHT22;8864;51.970;4.614;2022-07-23T08:52:43;26.40;56.40
17495;DHT22;8864;51.970;4.614;2022-07-23T08:55:10;26.50;56.40
17495;DHT22;8864;51.970;4.614;2022-07-23T08:57:37;26.40;56.40
17495;DHT22;8864;51.970;4.614;2022-07-23T09:00:05;26.50;56.50
17495;DHT22;8864;51.970;4.614;2022-07-23T09:02:39;26.40;56.40
17495;DHT22;8864;51.970;4.614;2022-07-23T09:05:08;26.50;56.40
17495;DHT22;8864;51.970;4.614;2022-07-23T09:07:36;26.50;56.50
17495;DHT22;8864;51.970;4.614;2022-07-23T09:10:11;26.50;56.50
17495;DHT22;8864;51.970;4.614;2022-07-23T09:12:38;26.40;56.40
17495;DHT22;8864;51.970;4.614;2022-07-23T09:15:08;26.50;56.50
17495;DHT22;8864;51.970;4.614;2022-07-23T09:17:39;26.50;56.50
17495;DHT22;8864;51.970;4.614;2022-07-23T09:20:10;26.50;56.50
17495;DHT22;8864;51.970;4.614;2022-07-23T09:22:37;26.50;56.40
17495;DHT22;8864;51.970;4.614;2022-07-23T09:25:10;26.50;56.40
17495;DHT22;8864;51.970;4.614;2022-07-23T09:27:54;26.50;56.50
17495;DHT22;8864;51.970;4.614;2022-07-23T09:30:22;26.50;56.40
17495;DHT22;8864;51.970;4.614;2022-07-23T09:33:05;26.50;56.40
17495;DHT22;8864;51.970;4.614;2022-07-23T09:35:50;26.50;56.40
17495;DHT22;8864;51.970;4.614;2022-07-23T09:38:19;26.50;56.40
17495;DHT22;8864;51.970;4.614;2022-07-23T09:40:47;26.50;56.40
17495;DHT22;8864;51.970;4.614;2022-07-23T09:43:31;26.60;56.50
17495;DHT22;8864;51.970;4.614;2022-07-23T09:46:16;26.60;56.50
17495;DHT22;8864;51.970;4.614;2022-07-23T09:48:43;26.60;56.50
17495;DHT22;8864;51.970;4.614;2022-07-23T09:51:11;26.50;56.40
17495;DHT22;8864;51.970;4.614;2022-07-23T09:53:38;26.50;56.40
17495;DHT22;8864;51.970;4.614;2022-07-23T09:56:06;26.60;56.50
17495;DHT22;8864;51.970;4.614;2022-07-23T09:58:35;26.60;56.40
17495;DHT22;8864;51.970;4.614;2022-07-23T10:01:10;26.60;56.40
17495;DHT22;8864;51.970;4.614;2022-07-23T10:03:39;26.60;56.30
17495;DHT22;8864;51.970;4.614;2022-07-23T10:06:08;26.60;56.40
17495;DHT22;8864;51.970;4.614;2022-07-23T10:08:39;26.60;56.30
17495;DHT22;8864;51.970;4.614;2022-07-23T10:11:07;26.60;56.30
17495;DHT22;8864;51.970;4.614;2022-07-23T10:13:36;26.70;56.30
17495;DHT22;8864;51.970;4.614;2022-07-23T10:16:26;26.60;56.20
17495;DHT22;8864;51.970;4.614;2022-07-23T10:18:53;26.70;56.30
17495;DHT22;8864;51.970;4.614;2022-07-23T10:21:25;26.70;56.30
17495;DHT22;8864;51.970;4.614;2022-07-23T10:24:08;26.70;56.20
17495;DHT22;8864;51.970;4.614;2022-07-23T10:26:41;26.70;56.20
17495;DHT22;8864;51.970;4.614;2022-07-23T10:29:18;26.70;56.20
17495;DHT22;8864;51.970;4.614;2022-07-23T10:31:52;26.70;56.20
17495;DHT22;8864;51.970;4.614;2022-07-23T10:34:26;26.80;56.30
17495;DHT22;8864;51.970;4.614;2022-07-23T10:36:59;26.70;56.20
17495;DHT22;8864;51.970;4.614;2022-07-23T10:39:32;26.80;56.30
17495;DHT22;8864;51.970;4.614;2022-07-23T10:42:08;26.80;56.30
17495;DHT22;8864;51.970;4.614;2022-07-23T10:44:39;26.70;56.20
17495;DHT22;8864;51.970;4.614;2022-07-23T10:47:08;26.80;56.20
17495;DHT22;8864;51.970;4.614;2022-07-23T10:50:16;26.80;56.20
17495;DHT22;8864;51.970;4.614;2022-07-23T10:53:11;26.80;56.20
17495;DHT22;8864;51.970;4.614;2022-07-23T10:55:44;26.80;56.20
17495;DHT22;8864;51.970;4.614;2022-07-23T10:58:17;26.80;56.20
17495;DHT22;8864;51.970;4.614;2022-07-23T11:00:44;26.80;56.20
17495;DHT22;8864;51.970;4.614;2022-07-23T11:03:31;26.80;56.20
17495;DHT22;8864;51.970;4.614;2022-07-23T11:06:02;26.80;56.20
17495;DHT22;8864;51.970;4.614;2022-07-23T11:08:31;26.90;56.20
17495;DHT22;8864;51.970;4.614;2022-07-23T11:11:10;26.80;56.20
17495;DHT22;8864;51.970;4.614;2022-07-23T11:13:45;26.90;56.20
17495;DHT22;8864;51.970;4.614;2022-07-23T11:16:15;26.80;56.20
17495;DHT22;8864;51.970;4.614;2022-07-23T11:19:05;26.80;56.20
17495;DHT22;8864;51.970;4.614;2022-07-23T11:21:46;26.80;56.20
17495;DHT22;8864;51.970;4.614;2022-07-23T11:24:17;26.90;56.20
17495;DHT22;8864;51.970;4.614;2022-07-23T11:27:03;26.90;56.20
17495;DHT22;8864;51.970;4.614;2022-07-23T11:29:48;26.90;56.20
17495;DHT22;8864;51.970;4.614;2022-07-23T11:32:34;26.90;56.20
17495;DHT22;8864;51.970;4.614;2022-07-23T11:35:21;26.90;56.20
17495;DHT22;8864;51.970;4.614;2022-07-23T11:37:49;26.90;56.20
17495;DHT22;8864;51.970;4.614;2022-07-23T11:40:20;26.90;56.20
17495;DHT22;8864;51.970;4.614;2022-07-23T11:42:53;26.90;56.20
17495;DHT22;8864;51.970;4.614;2022-07-23T11:45:20;26.90;56.20
17495;DHT22;8864;51.970;4.614;2022-07-23T11:47:47;26.90;56.20
17495;DHT22;8864;51.970;4.614;2022-07-23T11:50:14;26.90;56.20
17495;DHT22;8864;51.970;4.614;2022-07-23T11:52:41;26.90;56.20
17495;DHT22;8864;51.970;4.614;2022-07-23T11:55:10;26.90;56.90
17495;DHT22;8864;51.970;4.614;2022-07-23T11:57:40;26.90;56.20
17495;DHT22;8864;51.970;4.614;2022-07-23T12:00:09;26.90;56.20
17495;DHT22;8864;51.970;4.614;2022-07-23T12:02:36;26.90;56.20
17495;DHT22;8864;51.970;4.614;2022-07-23T12:05:04;26.90;56.20
17495;DHT22;8864;51.970;4.614;2022-07-23T12:07:33;26.90;56.20
17495;DHT22;8864;51.970;4.614;2022-07-23T12:10:03;26.90;56.20
17495;DHT22;8864;51.970;4.614;2022-07-23T12:12:39;26.90;56.20
17495;DHT22;8864;51.970;4.614;2022-07-23T12:15:07;26.90;56.20
17495;DHT22;8864;51.970;4.614;2022-07-23T12:17:36;26.90;56.20
17495;DHT22;8864;51.970;4.614;2022-07-23T12:20:06;26.90;56.20
17495;DHT22;8864;51.970;4.614;2022-07-23T12:22:35;27.00;56.20
17495;DHT22;8864;51.970;4.614;2022-07-23T12:25:05;27.00;56.20
17495;DHT22;8864;51.970;4.614;2022-07-23T12:27:32;27.00;56.20
17495;DHT22;8864;51.970;4.614;2022-07-23T12:30:15;27.00;56.20
17495;DHT22;8864;51.970;4.614;2022-07-23T12:32:43;27.00;56.10
17495;DHT22;8864;51.970;4.614;2022-07-23T12:35:10;27.00;56.10
17495;DHT22;8864;51.970;4.614;2022-07-23T12:37:39;27.00;56.10
17495;DHT22;8864;51.970;4.614;2022-07-23T12:40:23;27.00;56.00
17495;DHT22;8864;51.970;4.614;2022-07-23T12:42:53;27.00;56.10
17495;DHT22;8864;51.970;4.614;2022-07-23T12:45:22;27.10;56.10
17495;DHT22;8864;51.970;4.614;2022-07-23T12:48:01;27.10;56.10
17495;DHT22;8864;51.970;4.614;2022-07-23T12:50:37;27.10;56.00
17495;DHT22;8864;51.970;4.614;2022-07-23T12:53:10;27.00;56.00
17495;DHT22;8864;51.970;4.614;2022-07-23T12:55:39;27.00;56.00
17495;DHT22;8864;51.970;4.614;2022-07-23T12:58:08;27.10;56.00
17495;DHT22;8864;51.970;4.614;2022-07-23T13:00:54;27.10;56.00
17495;DHT22;8864;51.970;4.614;2022-07-23T13:03:26;27.10;55.90
17495;DHT22;8864;51.970;4.614;2022-07-23T13:05:54;27.10;56.00
17495;DHT22;8864;51.970;4.614;2022-07-23T13:08:21;27.10;56.00
17495;DHT22;8864;51.970;4.614;2022-07-23T13:10:49;27.10;56.00
17495;DHT22;8864;51.970;4.614;2022-07-23T13:13:17;27.10;56.00
17495;DHT22;8864;51.970;4.614;2022-07-23T13:15:46;27.10;56.00
17495;DHT22;8864;51.970;4.614;2022-07-23T13:18:14;27.10;56.00
17495;DHT22;8864;51.970;4.614;2022-07-23T13:20:42;27.10;56.00
17495;DHT22;8864;51.970;4.614;2022-07-23T13:23:09;27.10;56.00
17495;DHT22;8864;51.970;4.614;2022-07-23T13:25:36;27.20;56.00
17495;DHT22;8864;51.970;4.614;2022-07-23T13:28:03;27.10;56.00
17495;DHT22;8864;51.970;4.614;2022-07-23T13:30:30;27.20;56.00
17495;DHT22;8864;51.970;4.614;2022-07-23T13:32:57;27.20;56.00
17495;DHT22;8864;51.970;4.614;2022-07-23T13:35:25;27.20;55.90
17495;DHT22;8864;51.970;4.614;2022-07-23T13:37:52;27.20;55.90
17495;DHT22;8864;51.970;4.614;2022-07-23T13:40:19;27.20;55.90
17495;DHT22;8864;51.970;4.614;2022-07-23T13:42:46;27.20;55.90
17495;DHT22;8864;51.970;4.614;2022-07-23T13:45:12;27.30;55.90
17495;DHT22;8864;51.970;4.614;2022-07-23T13:47:39;27.20;55.90
17495;DHT22;8864;51.970;4.614;2022-07-23T13:50:07;27.30;55.90
17495;DHT22;8864;51.970;4.614;2022-07-23T13:52:35;27.30;55.80
17495;DHT22;8864;51.970;4.614;2022-07-23T13:55:03;27.30;55.90
17495;DHT22;8864;51.970;4.614;2022-07-23T13:57:30;27.30;55.80
17495;DHT22;8864;51.970;4.614;2022-07-23T13:59:57;27.30;55.90
17495;DHT22;8864;51.970;4.614;2022-07-23T14:02:25;27.30;55.80
17495;DHT22;8864;51.970;4.614;2022-07-23T14:04:52;27.30;55.90
17495;DHT22;8864;51.970;4.614;2022-07-23T14:07:19;27.30;55.80
17495;DHT22;8864;51.970;4.614;2022-07-23T14:09:47;27.30;55.80
17495;DHT22;8864;51.970;4.614;2022-07-23T14:12:14;27.30;55.80
17495;DHT22;8864;51.970;4.614;2022-07-23T14:14:41;27.30;55.80
17495;DHT22;8864;51.970;4.614;2022-07-23T14:17:09;27.30;55.90
17495;DHT22;8864;51.970;4.614;2022-07-23T14:19:35;27.30;55.90
17495;DHT22;8864;51.970;4.614;2022-07-23T14:22:02;27.30;55.80
17495;DHT22;8864;51.970;4.614;2022-07-23T14:24:29;27.30;55.80
17495;DHT22;8864;51.970;4.614;2022-07-23T14:26:59;27.30;55.90
17495;DHT22;8864;51.970;4.614;2022-07-23T14:29:27;27.30;55.80
17495;DHT22;8864;51.970;4.614;2022-07-23T14:31:53;27.40;56.00
17495;DHT22;8864;51.970;4.614;2022-07-23T14:34:20;27.30;55.80
17495;DHT22;8864;51.970;4.614;2022-07-23T14:36:47;27.40;55.80
17495;DHT22;8864;51.970;4.614;2022-07-23T14:39:14;27.30;55.70
17495;DHT22;8864;51.970;4.614;2022-07-23T14:41:41;27.40;55.90
17495;DHT22;8864;51.970;4.614;2022-07-23T14:44:09;27.40;55.90
17495;DHT22;8864;51.970;4.614;2022-07-23T14:46:36;27.40;55.80
17495;DHT22;8864;51.970;4.614;2022-07-23T14:49:03;27.40;55.90
17495;DHT22;8864;51.970;4.614;2022-07-23T14:51:30;27.40;55.90
17495;DHT22;8864;51.970;4.614;2022-07-23T14:53:57;27.30;55.80
17495;DHT22;8864;51.970;4.614;2022-07-23T14:56:24;27.40;55.90
17495;DHT22;8864;51.970;4.614;2022-07-23T14:58:51;27.30;55.80
17495;DHT22;8864;51.970;4.614;2022-07-23T15:01:19;27.30;55.80
17495;DHT22;8864;51.970;4.614;2022-07-23T15:03:46;27.40;55.90
17495;DHT22;8864;51.970;4.614;2022-07-23T15:06:12;27.30;55.80
17495;DHT22;8864;51.970;4.614;2022-07-23T15:08:39;27.30;55.80
17495;DHT22;8864;51.970;4.614;2022-07-23T15:11:06;27.40;55.90
17495;DHT22;8864;51.970;4.614;2022-07-23T15:13:34;27.30;55.90
17495;DHT22;8864;51.970;4.614;2022-07-23T15:16:01;27.30;55.90
17495;DHT22;8864;51.970;4.614;2022-07-23T15:18:30;27.30;55.80
17495;DHT22;8864;51.970;4.614;2022-07-23T15:20:57;27.40;55.90
17495;DHT22;8864;51.970;4.614;2022-07-23T15:23:24;27.40;55.90
17495;DHT22;8864;51.970;4.614;2022-07-23T15:25:51;27.40;56.00
17495;DHT22;8864;51.970;4.614;2022-07-23T15:28:18;27.40;55.90
17495;DHT22;8864;51.970;4.614;2022-07-23T15:30:45;27.40;55.90
17495;DHT22;8864;51.970;4.614;2022-07-23T15:33:11;27.40;55.90
17495;DHT22;8864;51.970;4.614;2022-07-23T15:35:40;27.40;55.90
17495;DHT22;8864;51.970;4.614;2022-07-23T15:38:06;27.40;55.90
17495;DHT22;8864;51.970;4.614;2022-07-23T15:40:33;27.40;55.80
17495;DHT22;8864;51.970;4.614;2022-07-23T15:43:00;27.50;55.90
17495;DHT22;8864;51.970;4.614;2022-07-23T15:45:28;27.50;55.90
17495;DHT22;8864;51.970;4.614;2022-07-23T15:47:54;27.50;55.80
17495;DHT22;8864;51.970;4.614;2022-07-23T15:50:21;27.50;55.80
17495;DHT22;8864;51.970;4.614;2022-07-23T15:52:50;27.50;55.80
17495;DHT22;8864;51.970;4.614;2022-07-23T15:55:16;27.50;55.80